Maasbracht, Netherlands
Current Conditions -  °F | °C
As of 6:25 AM on Sunday 26 Oct 2014 (Local Time) from EHBK Reporting Station
Overcast Overcast  
Wind Chill: 50°   Ceiling: 3900
Heat Index: 50°   Visibility: 6mi
Dew Point: 48°   Wind: 7mph
Humidity: 94%   Direction: 200°SSW
Pressure: 30.24"   Gusts: NA
Location:  51.14°N, 5.89°E
Report Text: EHBK 260425Z AUTO 20006KT 9999 OVC039 10/09 Q1024
Loading
Personal Weather Stations






























Interactive Weather Map
Tropical Storm Tracking
New forecast layout! Learn more

10-Day Weather Forecast

Advertisements
Track Severe Weather on mobile